createdAt,value
2019-01-28T00:00:40.385Z,3.17
2019-01-28T00:03:10.176Z,3.14
2019-01-28T00:05:39.090Z,3.23
2019-01-28T00:08:08.182Z,3.22
2019-01-28T00:10:36.970Z,3.28
2019-01-28T00:13:05.861Z,3.14
2019-01-28T00:15:34.752Z,3.08
2019-01-28T00:18:03.644Z,3.13
2019-01-28T00:20:32.538Z,3.24
2019-01-28T00:23:01.426Z,3.21
2019-01-28T00:25:30.314Z,3.18
2019-01-28T00:27:59.205Z,3.21
2019-01-28T00:30:28.096Z,3.31
2019-01-28T00:32:56.987Z,3.32
2019-01-28T00:35:25.896Z,3.28
2019-01-28T00:37:55.175Z,3.25
2019-01-28T00:40:24.068Z,3.13
2019-01-28T00:42:52.958Z,3.21
2019-01-28T00:45:21.850Z,3.19
2019-01-28T00:47:50.739Z,3.25
2019-01-28T00:50:19.628Z,3.35
2019-01-28T00:53:00.807Z,3.34
2019-01-28T00:55:29.698Z,3.38
2019-01-28T00:57:58.588Z,3.31
2019-01-28T01:00:30.451Z,3.28
2019-01-28T01:02:59.340Z,3.34
2019-01-28T01:05:28.128Z,3.31
2019-01-28T01:07:57.531Z,3.40
2019-01-28T01:10:26.426Z,3.47
2019-01-28T01:12:55.309Z,3.42
2019-01-28T01:15:24.823Z,3.38
2019-01-28T01:17:53.810Z,3.37
2019-01-28T01:20:22.904Z,3.42
2019-01-28T01:22:51.793Z,3.54
2019-01-28T01:25:20.688Z,3.55
2019-01-28T01:27:49.575Z,3.58
2019-01-28T01:30:18.980Z,3.57
2019-01-28T01:32:47.971Z,3.60
2019-01-28T01:35:16.862Z,3.55
2019-01-28T01:37:45.856Z,3.62
2019-01-28T01:40:16.178Z,3.69
2019-01-28T01:42:45.271Z,3.65
2019-01-28T01:45:16.830Z,3.67
2019-01-28T01:47:45.819Z,3.65
2019-01-28T01:50:15.596Z,3.62
2019-01-28T01:52:44.624Z,3.54
2019-01-28T01:55:14.617Z,3.65
2019-01-28T01:57:43.530Z,3.66
2019-01-28T02:00:19.819Z,3.72
2019-01-28T02:02:48.792Z,3.70
2019-01-28T02:05:17.780Z,3.72
2019-01-28T02:07:46.670Z,3.72
2019-01-28T02:10:16.855Z,3.76
2019-01-28T02:12:45.987Z,3.77
2019-01-28T02:15:17.696Z,3.71
2019-01-28T02:17:47.148Z,3.70
2019-01-28T02:20:16.740Z,3.74
2019-01-28T02:22:45.965Z,3.69
2019-01-28T02:25:15.810Z,3.81
2019-01-28T02:27:44.761Z,3.90
2019-01-28T02:30:15.802Z,3.83
2019-01-28T02:32:45.000Z,3.78
2019-01-28T02:35:14.285Z,3.91
2019-01-28T02:37:43.187Z,3.99
2019-01-28T02:40:15.047Z,3.97
2019-01-28T02:42:44.043Z,4.06
2019-01-28T02:45:14.574Z,4.20
2019-01-28T02:47:43.464Z,4.34
2019-01-28T02:50:16.762Z,4.34
2019-01-28T02:52:45.951Z,4.28
2019-01-28T02:55:16.738Z,4.27
2019-01-28T02:57:45.679Z,4.14
2019-01-28T03:00:17.539Z,4.01
2019-01-28T03:02:46.737Z,4.06
2019-01-28T03:05:16.753Z,4.06
2019-01-28T03:07:45.745Z,4.21
2019-01-28T03:10:17.402Z,4.28
2019-01-28T03:12:46.292Z,4.26
2019-01-28T03:15:16.331Z,4.19
2019-01-28T03:17:45.406Z,4.17
2019-01-28T03:20:16.314Z,4.21
2019-01-28T03:22:45.233Z,4.18
2019-01-28T03:25:16.887Z,4.27
2019-01-28T03:27:45.983Z,4.24
2019-01-28T03:30:17.529Z,4.34
2019-01-28T03:32:46.427Z,4.37
2019-01-28T03:35:15.583Z,4.47
2019-01-28T03:37:44.514Z,4.41
2019-01-28T03:40:16.382Z,4.44
2019-01-28T03:42:45.371Z,4.47
2019-01-28T03:45:19.480Z,4.44
2019-01-28T03:47:48.375Z,4.41
2019-01-28T03:50:18.900Z,4.38
2019-01-28T03:52:48.021Z,4.37
2019-01-28T03:55:17.096Z,4.30
2019-01-28T03:57:46.188Z,4.35
2019-01-28T04:00:20.881Z,4.40
2019-01-28T04:02:49.803Z,4.35
2019-01-28T04:05:18.905Z,4.31
2019-01-28T04:07:47.894Z,4.33
2019-01-28T04:10:18.886Z,4.38
2019-01-28T04:13:07.489Z,4.36
2019-01-28T04:15:36.375Z,4.37
2019-01-28T04:18:05.265Z,4.41
2019-01-28T04:20:34.258Z,4.48
2019-01-28T04:23:03.148Z,4.42
2019-01-28T04:25:32.039Z,4.51
2019-01-28T04:28:00.931Z,4.55
2019-01-28T04:30:29.821Z,4.61
2019-01-28T04:32:58.710Z,4.61
2019-01-28T04:35:27.601Z,4.62
2019-01-28T04:37:57.311Z,4.72
2019-01-28T04:40:26.200Z,4.71
2019-01-28T04:42:55.091Z,4.68
2019-01-28T04:45:23.879Z,4.69
2019-01-28T04:47:52.680Z,4.67
2019-01-28T04:50:22.488Z,4.67
2019-01-28T04:52:51.471Z,4.69
2019-01-28T04:55:20.567Z,4.80
2019-01-28T04:57:49.460Z,4.78
2019-01-28T05:00:23.979Z,4.83
2019-01-28T05:02:52.871Z,4.75
2019-01-28T05:05:22.239Z,4.59
2019-01-28T05:07:51.062Z,4.61
2019-01-28T05:10:21.389Z,4.56
2019-01-28T05:12:50.483Z,4.65
2019-01-28T05:15:20.472Z,4.49
2019-01-28T05:17:49.389Z,4.55
2019-01-28T05:20:23.587Z,4.60
2019-01-28T05:22:52.496Z,4.61
2019-01-28T05:25:21.383Z,4.55
2019-01-28T05:27:50.397Z,4.53
2019-01-28T05:30:21.375Z,4.50
2019-01-28T05:32:50.414Z,4.40
2019-01-28T05:35:20.942Z,4.41
2019-01-28T05:37:49.830Z,4.48
2019-01-28T05:40:25.993Z,4.53
2019-01-28T05:42:54.889Z,4.52
2019-01-28T05:45:25.066Z,4.42
2019-01-28T05:47:54.102Z,4.49
2019-01-28T05:50:22.986Z,4.57
2019-01-28T05:52:51.979Z,4.62
2019-01-28T05:55:21.387Z,4.62
2019-01-28T05:57:50.274Z,4.48
2019-01-28T06:00:34.012Z,4.55
2019-01-28T06:03:02.802Z,4.54
2019-01-28T06:05:31.690Z,4.56
2019-01-28T06:08:00.580Z,4.59
2019-01-28T06:10:29.471Z,4.58
2019-01-28T06:12:58.361Z,4.59
2019-01-28T06:15:27.255Z,4.57
2019-01-28T06:17:56.346Z,4.59
2019-01-28T06:20:26.454Z,4.59
2019-01-28T06:22:55.361Z,4.67
2019-01-28T06:25:24.156Z,4.68
2019-01-28T06:27:53.038Z,4.63
2019-01-28T06:30:24.592Z,4.71
2019-01-28T06:32:53.581Z,4.76
2019-01-28T06:35:22.473Z,4.81
2019-01-28T06:37:51.725Z,4.75
2019-01-28T06:40:23.225Z,4.82
2019-01-28T06:42:52.190Z,4.88
2019-01-28T06:45:21.106Z,4.88
2019-01-28T06:47:49.997Z,4.87
2019-01-28T06:50:20.982Z,4.91
2019-01-28T06:52:50.133Z,4.86
2019-01-28T06:55:19.434Z,4.85
2019-01-28T06:57:48.528Z,4.90
2019-01-28T07:00:29.747Z,5.00
2019-01-28T07:02:59.313Z,5.02
2019-01-28T07:05:28.309Z,5.01
2019-01-28T07:07:57.507Z,5.03
2019-01-28T07:10:26.600Z,5.08
2019-01-28T07:12:56.515Z,5.02
2019-01-28T07:15:25.713Z,5.13
2019-01-28T07:17:55.371Z,5.13
2019-01-28T07:20:27.487Z,5.29
2019-01-28T07:22:56.480Z,5.36
2019-01-28T07:25:25.375Z,5.37
2019-01-28T07:27:54.266Z,5.32
2019-01-28T07:30:31.855Z,5.40
2019-01-28T07:33:00.745Z,5.38
2019-01-28T07:35:29.640Z,5.43
2019-01-28T07:37:58.834Z,5.55
2019-01-28T07:40:27.727Z,5.60
2019-01-28T07:42:56.615Z,5.57
2019-01-28T07:45:33.801Z,5.54
2019-01-28T07:48:03.371Z,5.58
2019-01-28T07:50:32.302Z,5.64
2019-01-28T07:53:01.295Z,5.73
2019-01-28T07:55:30.184Z,5.71
2019-01-28T07:57:59.072Z,5.83
2019-01-28T08:00:31.986Z,5.90
2019-01-28T08:03:00.855Z,6.07
2019-01-28T08:05:30.421Z,6.24
2019-01-28T08:07:59.654Z,6.30
2019-01-28T08:10:28.643Z,6.33
2019-01-28T08:12:57.741Z,6.34
2019-01-28T08:15:28.393Z,6.40
2019-01-28T08:17:57.529Z,6.54
2019-01-28T08:20:26.461Z,6.68
2019-01-28T08:22:55.351Z,6.70
2019-01-28T08:25:24.446Z,6.63
2019-01-28T08:27:53.344Z,6.61
2019-01-28T08:30:25.099Z,6.65
2019-01-28T08:32:53.984Z,6.70
2019-01-28T08:35:23.387Z,6.60
2019-01-28T08:37:52.277Z,6.77
2019-01-28T08:40:22.762Z,6.84
2019-01-28T08:42:51.596Z,6.78
2019-01-28T08:45:20.588Z,6.80
2019-01-28T08:47:49.580Z,6.74
2019-01-28T08:50:27.584Z,6.71
2019-01-28T08:52:56.474Z,6.78
2019-01-28T08:55:27.283Z,6.74
2019-01-28T08:57:56.520Z,6.94
2019-01-28T09:00:28.277Z,6.81
2019-01-28T09:02:57.174Z,6.78
2019-01-28T09:05:26.661Z,6.75
2019-01-28T09:07:55.551Z,6.73
2019-01-28T09:10:27.961Z,6.71
2019-01-28T09:12:57.082Z,6.69
2019-01-28T09:15:26.531Z,6.73
2019-01-28T09:17:56.014Z,6.79
2019-01-28T09:20:30.451Z,6.79
2019-01-28T09:22:59.341Z,6.86
2019-01-28T09:25:28.435Z,6.92
2019-01-28T09:27:57.326Z,6.90
2019-01-28T09:30:28.316Z,7.05
2019-01-28T09:32:57.155Z,7.08
2019-01-28T09:35:26.253Z,7.02
2019-01-28T09:37:56.489Z,6.93
2019-01-28T09:40:30.406Z,6.95
2019-01-28T09:42:59.577Z,7.03
2019-01-28T09:45:33.696Z,7.23
2019-01-28T09:48:02.585Z,7.24
2019-01-28T09:50:31.472Z,7.26
2019-01-28T09:53:00.671Z,7.32
2019-01-28T09:55:29.663Z,7.20
2019-01-28T09:57:58.553Z,7.12
2019-01-28T10:00:33.693Z,7.28
2019-01-28T10:03:02.482Z,7.26
2019-01-28T10:05:31.472Z,7.39
2019-01-28T10:08:00.365Z,7.55
2019-01-28T10:10:29.460Z,7.39
2019-01-28T10:12:58.450Z,7.43
2019-01-28T10:15:29.037Z,7.46
2019-01-28T10:17:58.180Z,7.59
2019-01-28T10:20:32.882Z,7.67
2019-01-28T10:23:02.103Z,7.68
2019-01-28T10:25:30.994Z,7.81
2019-01-28T10:28:00.251Z,7.75
2019-01-28T10:30:34.823Z,7.77
2019-01-28T10:33:04.414Z,7.79
2019-01-28T10:35:35.156Z,7.69
2019-01-28T10:38:04.946Z,7.62
2019-01-28T10:40:36.799Z,7.65
2019-01-28T10:43:06.843Z,7.81
2019-01-28T10:45:35.848Z,7.69
2019-01-28T10:48:05.329Z,7.70
2019-01-28T10:50:34.560Z,7.70
2019-01-28T10:53:03.433Z,7.77
2019-01-28T10:55:32.221Z,7.72
2019-01-28T10:58:01.231Z,7.66
2019-01-28T11:00:42.062Z,7.65
2019-01-28T11:03:13.087Z,7.63
2019-01-28T11:05:42.019Z,7.67
2019-01-28T11:08:10.908Z,7.70
2019-01-28T11:10:40.003Z,7.78
2019-01-28T11:13:08.975Z,7.83
2019-01-28T11:15:37.907Z,8.02
2019-01-28T11:18:18.996Z,7.99
2019-01-28T11:20:47.957Z,8.00
2019-01-28T11:23:16.936Z,8.09
2019-01-28T11:25:46.129Z,8.06
2019-01-28T11:28:15.038Z,8.05
2019-01-28T11:30:51.438Z,8.12
2019-01-28T11:33:20.461Z,8.09
2019-01-28T11:35:49.963Z,8.10
2019-01-28T11:38:19.094Z,8.20
2019-01-28T11:40:48.212Z,8.16
2019-01-28T11:43:17.230Z,8.20
2019-01-28T11:45:52.365Z,8.35
2019-01-28T11:48:21.294Z,8.39
2019-01-28T11:50:55.932Z,8.42
2019-01-28T11:53:20.942Z,8.54
2019-01-28T11:55:49.833Z,8.66
2019-01-28T11:58:18.724Z,8.59
2019-01-28T12:00:58.059Z,8.73
2019-01-28T12:03:27.059Z,8.76
2019-01-28T12:05:55.969Z,8.77
2019-01-28T12:08:25.912Z,8.87
2019-01-28T12:10:54.748Z,8.73
2019-01-28T12:13:23.765Z,8.89
2019-01-28T12:15:52.733Z,9.06
2019-01-28T12:18:21.629Z,9.24
2019-01-28T12:20:53.731Z,9.23
2019-01-28T12:23:21.351Z,9.11
2019-01-28T12:25:50.241Z,9.20
2019-01-28T12:28:19.138Z,9.21
2019-01-28T12:30:48.023Z,9.25
2019-01-28T12:33:16.916Z,9.18
2019-01-28T12:35:45.805Z,9.24
2019-01-28T12:38:15.106Z,9.31
2019-01-28T12:40:43.996Z,9.16
2019-01-28T12:43:12.886Z,9.09
2019-01-28T12:45:41.779Z,9.02
2019-01-28T12:48:10.668Z,9.01
2019-01-28T12:50:39.557Z,8.98
2019-01-28T12:53:08.505Z,8.75
2019-01-28T12:55:37.444Z,8.89
2019-01-28T12:58:06.981Z,8.82
2019-01-28T13:00:37.988Z,8.80
2019-01-28T13:03:07.669Z,8.71
2019-01-28T13:05:36.792Z,8.52
2019-01-28T13:08:06.135Z,8.50
2019-01-28T13:10:35.318Z,8.56
2019-01-28T13:13:04.393Z,8.68
2019-01-28T13:15:34.668Z,8.73
2019-01-28T13:18:03.810Z,8.79
2019-01-28T13:20:32.699Z,8.60
2019-01-28T13:23:01.902Z,8.73
2019-01-28T13:25:33.143Z,8.88
2019-01-28T13:28:02.136Z,8.91
2019-01-28T13:30:41.166Z,9.06
2019-01-28T13:33:12.703Z,9.15
2019-01-28T13:35:41.506Z,9.15
2019-01-28T13:38:10.809Z,9.20
2019-01-28T13:40:39.695Z,8.95
2019-01-28T13:43:08.588Z,9.05
2019-01-28T13:45:37.577Z,9.00
2019-01-28T13:48:09.233Z,8.98
2019-01-28T13:50:38.123Z,8.95
2019-01-28T13:53:07.476Z,8.76
2019-01-28T13:55:36.314Z,8.62
2019-01-28T13:58:05.565Z,8.55
2019-01-28T14:00:35.019Z,8.38
2019-01-28T14:03:04.013Z,8.22
2019-01-28T14:05:32.901Z,8.00
2019-01-28T14:08:01.896Z,7.91
2019-01-28T14:10:30.784Z,7.84
2019-01-28T14:12:59.677Z,7.87
2019-01-28T14:15:34.363Z,7.88
2019-01-28T14:18:03.195Z,7.83
2019-01-28T14:20:36.997Z,7.87
2019-01-28T14:23:06.296Z,7.90
2019-01-28T14:25:35.087Z,7.95
2019-01-28T14:28:05.705Z,8.01
2019-01-28T14:30:37.706Z,8.00
2019-01-28T14:33:07.291Z,8.06
2019-01-28T14:35:36.574Z,8.04
2019-01-28T14:38:07.328Z,8.04
2019-01-28T14:40:36.812Z,8.05
2019-01-28T14:43:05.921Z,7.99
2019-01-28T14:45:34.929Z,7.97
2019-01-28T14:48:04.011Z,7.98
2019-01-28T14:50:34.610Z,7.96
2019-01-28T14:53:03.535Z,7.73
2019-01-28T14:55:32.630Z,7.74
2019-01-28T14:58:01.826Z,7.73
2019-01-28T15:00:39.143Z,7.65
2019-01-28T15:03:08.002Z,7.65
2019-01-28T15:05:37.206Z,7.54
2019-01-28T15:08:06.745Z,7.57
2019-01-28T15:10:35.801Z,7.56
2019-01-28T15:13:05.102Z,7.61
2019-01-28T15:15:36.346Z,7.54
2019-01-28T15:18:06.435Z,7.46
2019-01-28T15:20:35.379Z,7.50
2019-01-28T15:23:04.409Z,7.50
2019-01-28T15:25:33.343Z,7.42
2019-01-28T15:28:02.232Z,7.40
2019-01-28T15:30:32.118Z,7.18
2019-01-28T15:33:01.256Z,7.13
2019-01-28T15:35:30.135Z,7.03
2019-01-28T15:37:59.127Z,6.97
2019-01-28T15:40:32.182Z,6.93
2019-01-28T15:43:01.091Z,6.83
2019-01-28T15:45:32.557Z,6.83
2019-01-28T15:48:01.450Z,6.78
2019-01-28T15:50:30.440Z,6.77
2019-01-28T15:52:59.646Z,6.82
2019-01-28T15:55:31.317Z,6.85
2019-01-28T15:58:01.107Z,6.94
2019-01-28T16:00:32.871Z,7.02
2019-01-28T16:03:02.626Z,6.97
2019-01-28T16:05:31.916Z,6.90
2019-01-28T16:08:01.891Z,6.97
2019-01-28T16:10:30.785Z,7.01
2019-01-28T16:12:59.671Z,7.04
2019-01-28T16:15:37.177Z,7.21
2019-01-28T16:18:09.565Z,7.31
2019-01-28T16:20:38.950Z,7.28
2019-01-28T16:23:08.298Z,7.24
2019-01-28T16:25:37.651Z,7.15
2019-01-28T16:28:06.830Z,7.20
2019-01-28T16:30:36.295Z,7.20
2019-01-28T16:33:05.202Z,7.21
2019-01-28T16:35:33.987Z,7.28
2019-01-28T16:38:02.918Z,7.40
2019-01-28T16:40:31.902Z,7.38
2019-01-28T16:43:00.903Z,7.31
2019-01-28T16:45:30.200Z,7.27
2019-01-28T16:47:59.093Z,7.18
2019-01-28T16:50:32.898Z,7.16
2019-01-28T16:53:02.408Z,7.16
2019-01-28T16:55:31.297Z,7.13
2019-01-28T16:58:00.378Z,7.03
2019-01-28T17:00:37.951Z,7.04
2019-01-28T17:03:08.065Z,7.04
2019-01-28T17:05:37.293Z,7.18
2019-01-28T17:08:06.961Z,7.27
2019-01-28T17:10:35.902Z,7.39
2019-01-28T17:13:05.489Z,7.47
2019-01-28T17:15:34.501Z,7.50
2019-01-28T17:18:03.396Z,7.52
2019-01-28T17:20:35.646Z,7.56
2019-01-28T17:23:04.142Z,7.59
2019-01-28T17:25:41.636Z,7.59
2019-01-28T17:28:10.627Z,7.50
2019-01-28T17:30:45.048Z,7.55
2019-01-28T17:33:14.085Z,7.74
2019-01-28T17:35:43.034Z,7.82
2019-01-28T17:38:12.128Z,7.93
2019-01-28T17:40:41.610Z,8.00
2019-01-28T17:43:11.537Z,8.14
2019-01-28T17:45:40.541Z,8.18
2019-01-28T17:48:10.322Z,8.19
2019-01-28T17:50:43.665Z,8.23
2019-01-28T17:53:11.677Z,8.27
2019-01-28T17:55:42.045Z,8.42
2019-01-28T17:58:10.934Z,8.47
2019-01-28T18:00:50.884Z,8.44
2019-01-28T18:03:19.883Z,8.35
2019-01-28T18:05:48.770Z,8.36
2019-01-28T18:08:17.760Z,8.41
2019-01-28T18:10:46.657Z,8.42
2019-01-28T18:13:15.710Z,8.49
2019-01-28T18:15:44.636Z,8.48
2019-01-28T18:18:13.527Z,8.42
2019-01-28T18:20:42.418Z,8.44
2019-01-28T18:23:12.844Z,8.44
2019-01-28T18:25:41.838Z,8.49
2019-01-28T18:28:10.728Z,8.51
2019-01-28T18:30:47.301Z,8.48
2019-01-28T18:33:16.190Z,8.49
2019-01-28T18:35:44.977Z,8.50
2019-01-28T18:38:14.072Z,8.55
2019-01-28T18:40:42.963Z,8.52
2019-01-28T18:43:11.856Z,8.56
2019-01-28T18:45:40.949Z,8.60
2019-01-28T18:48:10.148Z,8.61
2019-01-28T18:50:39.345Z,8.49
2019-01-28T18:53:08.339Z,8.51
2019-01-28T18:55:37.229Z,8.57
2019-01-28T18:58:06.916Z,8.51
2019-01-28T19:00:36.178Z,8.52
2019-01-28T19:03:05.745Z,8.49
2019-01-28T19:05:42.109Z,8.31
2019-01-28T19:08:24.720Z,8.17
2019-01-28T19:10:55.354Z,8.10
2019-01-28T19:13:37.657Z,8.05
2019-01-28T19:16:11.574Z,8.09
2019-01-28T19:18:41.993Z,8.13
2019-01-28T19:21:18.359Z,8.14
2019-01-28T19:23:47.249Z,8.16
2019-01-28T19:26:16.241Z,8.04
2019-01-28T19:28:45.235Z,8.08
2019-01-28T19:31:14.125Z,8.13
2019-01-28T19:33:43.016Z,8.12
2019-01-28T19:36:12.011Z,8.18
2019-01-28T19:38:40.898Z,8.17
2019-01-28T19:41:09.794Z,8.17
2019-01-28T19:43:38.685Z,8.14
2019-01-28T19:46:07.572Z,8.20
2019-01-28T19:48:36.461Z,8.24
2019-01-28T19:51:05.688Z,8.29
2019-01-28T19:53:34.551Z,8.27
2019-01-28T19:56:03.443Z,8.23
2019-01-28T19:58:32.384Z,8.26
2019-01-28T20:01:01.221Z,8.22
2019-01-28T20:03:30.012Z,8.22
2019-01-28T20:05:59.328Z,8.21
2019-01-28T20:08:28.201Z,8.22
2019-01-28T20:10:56.991Z,8.24
2019-01-28T20:13:25.980Z,8.20
2019-01-28T20:15:54.873Z,8.22
2019-01-28T20:18:23.762Z,8.21
2019-01-28T20:20:52.669Z,8.23
2019-01-28T20:23:21.543Z,8.25
2019-01-28T20:25:50.638Z,8.28
2019-01-28T20:28:19.723Z,8.29
2019-01-28T20:30:48.626Z,8.33
2019-01-28T20:33:17.516Z,8.35
2019-01-28T20:35:46.523Z,8.41
2019-01-28T20:38:16.086Z,8.39
2019-01-28T20:40:44.904Z,8.33
2019-01-28T20:43:13.797Z,8.29
2019-01-28T20:45:45.099Z,8.31
2019-01-28T20:48:13.227Z,8.22
2019-01-28T20:50:42.530Z,8.27
2019-01-28T20:53:11.333Z,8.23
2019-01-28T20:55:40.199Z,8.17
2019-01-28T20:58:10.529Z,8.18
2019-01-28T21:00:39.469Z,8.13
2019-01-28T21:03:08.313Z,8.10
2019-01-28T21:05:37.190Z,8.14
2019-01-28T21:08:06.290Z,8.05
2019-01-28T21:10:35.284Z,7.91
2019-01-28T21:13:04.516Z,7.81
2019-01-28T21:15:33.364Z,7.83
2019-01-28T21:18:02.257Z,7.76
2019-01-28T21:20:31.454Z,7.75
2019-01-28T21:23:00.347Z,7.71
2019-01-28T21:25:29.496Z,7.71
2019-01-28T21:27:58.435Z,7.71
2019-01-28T21:30:34.814Z,7.63
2019-01-28T21:33:03.996Z,7.67
2019-01-28T21:35:34.422Z,7.64
2019-01-28T21:38:08.542Z,7.67
2019-01-28T21:40:37.431Z,7.62
2019-01-28T21:43:06.419Z,7.67
2019-01-28T21:45:35.310Z,7.65
2019-01-28T21:48:04.455Z,7.67
2019-01-28T21:50:33.300Z,7.69
2019-01-28T21:53:02.186Z,7.69
2019-01-28T21:55:30.975Z,7.67
2019-01-28T21:57:59.864Z,7.70
2019-01-28T22:00:30.138Z,7.73
2019-01-28T22:02:59.181Z,7.70
2019-01-28T22:05:28.075Z,7.73
2019-01-28T22:07:57.098Z,7.71
2019-01-28T22:10:25.956Z,7.76
2019-01-28T22:12:54.855Z,7.72
2019-01-28T22:15:23.736Z,7.65
2019-01-28T22:17:52.628Z,7.71
2019-01-28T22:20:21.519Z,7.67
2019-01-28T22:22:50.820Z,7.64
2019-01-28T22:25:19.710Z,7.64
2019-01-28T22:27:56.974Z,7.70
2019-01-28T22:30:24.412Z,7.70
2019-01-28T22:32:53.240Z,7.71
2019-01-28T22:35:22.131Z,7.72
2019-01-28T22:37:51.022Z,7.77
2019-01-28T22:40:20.810Z,7.79
2019-01-28T22:42:49.590Z,7.80
2019-01-28T22:45:22.303Z,7.80
2019-01-28T22:47:51.196Z,7.77
2019-01-28T22:50:21.721Z,7.79
2019-01-28T22:52:50.817Z,7.73
2019-01-28T22:55:24.011Z,7.70
2019-01-28T22:57:52.901Z,7.73
2019-01-28T23:00:49.850Z,7.74
2019-01-28T23:03:20.033Z,7.70
2019-01-28T23:05:48.958Z,7.69
2019-01-28T23:08:17.852Z,7.66
2019-01-28T23:10:46.741Z,7.69
2019-01-28T23:13:15.733Z,7.73
2019-01-28T23:15:44.627Z,7.75
2019-01-28T23:18:13.513Z,7.71
2019-01-28T23:20:42.570Z,7.72
2019-01-28T23:23:11.809Z,7.76
2019-01-28T23:25:40.735Z,7.75
2019-01-28T23:28:09.690Z,7.70
2019-01-28T23:30:38.581Z,7.69
2019-01-28T23:33:07.676Z,7.68
2019-01-28T23:35:36.570Z,7.67
2019-01-28T23:38:06.074Z,7.68
2019-01-28T23:40:34.860Z,7.68
2019-01-28T23:43:05.014Z,7.70
2019-01-28T23:45:33.870Z,7.66
2019-01-28T23:48:02.658Z,7.66
2019-01-28T23:50:31.445Z,7.69
2019-01-28T23:53:00.342Z,7.74
2019-01-28T23:55:29.133Z,7.74
2019-01-28T23:57:58.017Z,7.75
